sensor_id;sensor_type;location;lat;lon;timestamp;pressure;altitude;pressure_sealevel;temperature;humidity
77149;BME280;66122;47.130;16.844;2023-09-19T00:07:40;99167.72;;;19.16;100.00
77149;BME280;66122;47.130;16.844;2023-09-19T00:17:43;99151.91;;;19.30;100.00
77149;BME280;66122;47.130;16.844;2023-09-19T00:27:47;99144.28;;;19.08;100.00
77149;BME280;66122;47.130;16.844;2023-09-19T00:37:50;99135.91;;;19.11;100.00
77149;BME280;66122;47.130;16.844;2023-09-19T00:47:53;99149.84;;;18.97;100.00
77149;BME280;66122;47.130;16.844;2023-09-19T00:57:56;99141.66;;;18.98;100.00
77149;BME280;66122;47.130;16.844;2023-09-19T01:07:59;99125.16;;;19.11;100.00
77149;BME280;66122;47.130;16.844;2023-09-19T01:28:39;99169.44;;;19.07;100.00
77149;BME280;66122;47.130;16.844;2023-09-19T01:38:46;99163.63;;;19.11;100.00
77149;BME280;66122;47.130;16.844;2023-09-19T01:59:20;99167.47;;;19.27;100.00
77149;BME280;66122;47.130;16.844;2023-09-19T02:09:24;99185.16;;;19.29;100.00
77149;BME280;66122;47.130;16.844;2023-09-19T02:19:27;99197.50;;;19.22;100.00
77149;BME280;66122;47.130;16.844;2023-09-19T02:29:31;99217.38;;;19.02;100.00
77149;BME280;66122;47.130;16.844;2023-09-19T02:39:34;99256.00;;;19.01;100.00
77149;BME280;66122;47.130;16.844;2023-09-19T02:49:37;99283.69;;;18.64;100.00
77149;BME280;66122;47.130;16.844;2023-09-19T02:59:40;99288.56;;;17.93;100.00
77149;BME280;66122;47.130;16.844;2023-09-19T03:09:44;99276.13;;;17.64;100.00
77149;BME280;66122;47.130;16.844;2023-09-19T03:19:47;99258.59;;;17.50;100.00
77149;BME280;66122;47.130;16.844;2023-09-19T03:29:50;99263.34;;;17.46;100.00
77149;BME280;66122;47.130;16.844;2023-09-19T03:39:54;99298.06;;;17.48;100.00
77149;BME280;66122;47.130;16.844;2023-09-19T03:49:58;99291.81;;;17.38;100.00
77149;BME280;66122;47.130;16.844;2023-09-19T04:00:02;99332.91;;;16.87;100.00
77149;BME280;66122;47.130;16.844;2023-09-19T04:10:14;99288.28;;;16.46;100.00
77149;BME280;66122;47.130;16.844;2023-09-19T04:20:18;99319.66;;;16.44;100.00
77149;BME280;66122;47.130;16.844;2023-09-19T04:30:28;99367.69;;;16.46;100.00
77149;BME280;66122;47.130;16.844;2023-09-19T04:40:31;99325.75;;;16.14;100.00
77149;BME280;66122;47.130;16.844;2023-09-19T04:50:35;99330.09;;;16.06;100.00
77149;BME280;66122;47.130;16.844;2023-09-19T05:00:37;99363.72;;;16.08;100.00
77149;BME280;66122;47.130;16.844;2023-09-19T05:10:40;99398.69;;;16.16;100.00
77149;BME280;66122;47.130;16.844;2023-09-19T05:20:43;99404.50;;;16.21;100.00
77149;BME280;66122;47.130;16.844;2023-09-19T05:30:50;99410.56;;;16.23;100.00
77149;BME280;66122;47.130;16.844;2023-09-19T05:40:55;99444.00;;;16.61;100.00
77149;BME280;66122;47.130;16.844;2023-09-19T05:50:57;99440.63;;;16.48;100.00
77149;BME280;66122;47.130;16.844;2023-09-19T06:01:02;99469.03;;;16.60;100.00
77149;BME280;66122;47.130;16.844;2023-09-19T06:11:05;99489.00;;;16.67;100.00
77149;BME280;66122;47.130;16.844;2023-09-19T06:21:09;99461.84;;;16.28;100.00
77149;BME280;66122;47.130;16.844;2023-09-19T06:31:12;99504.34;;;16.54;100.00
77149;BME280;66122;47.130;16.844;2023-09-19T06:41:15;99499.72;;;16.45;100.00
77149;BME280;66122;47.130;16.844;2023-09-19T06:51:20;99514.53;;;16.71;100.00
77149;BME280;66122;47.130;16.844;2023-09-19T07:01:23;99559.47;;;16.88;100.00
77149;BME280;66122;47.130;16.844;2023-09-19T07:11:27;99530.47;;;16.93;100.00
77149;BME280;66122;47.130;16.844;2023-09-19T07:21:29;99563.84;;;17.21;100.00
77149;BME280;66122;47.130;16.844;2023-09-19T07:31:32;99560.09;;;17.12;100.00
77149;BME280;66122;47.130;16.844;2023-09-19T07:41:35;99568.38;;;17.62;100.00
77149;BME280;66122;47.130;16.844;2023-09-19T07:51:37;99577.00;;;17.96;100.00
77149;BME280;66122;47.130;16.844;2023-09-19T08:01:41;99605.53;;;17.97;100.00
77149;BME280;66122;47.130;16.844;2023-09-19T08:11:43;99623.84;;;18.13;100.00
77149;BME280;66122;47.130;16.844;2023-09-19T08:21:47;99628.47;;;18.11;100.00
77149;BME280;66122;47.130;16.844;2023-09-19T08:31:52;99628.78;;;18.48;100.00
77149;BME280;66122;47.130;16.844;2023-09-19T08:41:59;99643.59;;;18.52;100.00
77149;BME280;66122;47.130;16.844;2023-09-19T08:52:10;99634.41;;;18.45;100.00
77149;BME280;66122;47.130;16.844;2023-09-19T09:02:18;99645.44;;;18.82;100.00
77149;BME280;66122;47.130;16.844;2023-09-19T09:12:21;99631.50;;;20.31;100.00
77149;BME280;66122;47.130;16.844;2023-09-19T09:22:24;99623.34;;;20.13;100.00
77149;BME280;66122;47.130;16.844;2023-09-19T09:32:30;99632.94;;;20.35;100.00
77149;BME280;66122;47.130;16.844;2023-09-19T09:42:37;99639.34;;;21.06;100.00
77149;BME280;66122;47.130;16.844;2023-09-19T09:52:45;99654.66;;;21.05;100.00
77149;BME280;66122;47.130;16.844;2023-09-19T10:02:47;99660.66;;;22.06;90.92
77149;BME280;66122;47.130;16.844;2023-09-19T10:12:54;99669.19;;;22.19;93.14
77149;BME280;66122;47.130;16.844;2023-09-19T10:23:00;99679.94;;;23.95;81.49
77149;BME280;66122;47.130;16.844;2023-09-19T10:33:04;99674.50;;;23.79;79.23
77149;BME280;66122;47.130;16.844;2023-09-19T10:43:11;99668.41;;;23.85;78.91
77149;BME280;66122;47.130;16.844;2023-09-19T10:53:16;99653.78;;;24.43;72.78
77149;BME280;66122;47.130;16.844;2023-09-19T11:03:20;99663.91;;;23.03;78.85
77149;BME280;66122;47.130;16.844;2023-09-19T11:13:33;99656.13;;;25.01;69.64
77149;BME280;66122;47.130;16.844;2023-09-19T11:23:41;99660.00;;;25.83;68.33
77149;BME280;66122;47.130;16.844;2023-09-19T11:44:33;99648.97;;;25.85;64.63
77149;BME280;66122;47.130;16.844;2023-09-19T11:54:37;99627.16;;;28.17;56.67
77149;BME280;66122;47.130;16.844;2023-09-19T12:04:44;99603.44;;;29.86;50.26
77149;BME280;66122;47.130;16.844;2023-09-19T12:14:51;99608.50;;;30.09;45.34
77149;BME280;66122;47.130;16.844;2023-09-19T12:25:05;99609.09;;;29.92;46.92
77149;BME280;66122;47.130;16.844;2023-09-19T12:35:08;99605.28;;;27.18;55.57
77149;BME280;66122;47.130;16.844;2023-09-19T12:45:14;99609.94;;;26.15;56.35
77149;BME280;66122;47.130;16.844;2023-09-19T12:55:26;99597.88;;;23.87;74.86
77149;BME280;66122;47.130;16.844;2023-09-19T13:05:52;99605.41;;;24.16;77.50
77149;BME280;66122;47.130;16.844;2023-09-19T13:15:56;99606.50;;;23.25;78.02
77149;BME280;66122;47.130;16.844;2023-09-19T13:26:03;99631.91;;;22.82;87.50
77149;BME280;66122;47.130;16.844;2023-09-19T13:36:09;99622.53;;;23.19;82.34
77149;BME280;66122;47.130;16.844;2023-09-19T13:46:11;99645.16;;;22.68;89.03
77149;BME280;66122;47.130;16.844;2023-09-19T13:56:18;99646.22;;;22.75;86.68
77149;BME280;66122;47.130;16.844;2023-09-19T14:06:20;99666.81;;;22.42;79.16
77149;BME280;66122;47.130;16.844;2023-09-19T14:16:23;99658.25;;;19.95;100.00
77149;BME280;66122;47.130;16.844;2023-09-19T14:26:27;99675.38;;;18.16;100.00
77149;BME280;66122;47.130;16.844;2023-09-19T14:36:36;99649.94;;;17.37;100.00
77149;BME280;66122;47.130;16.844;2023-09-19T14:46:39;99642.06;;;17.36;100.00
77149;BME280;66122;47.130;16.844;2023-09-19T14:56:43;99645.78;;;17.76;100.00
77149;BME280;66122;47.130;16.844;2023-09-19T15:06:46;99654.06;;;17.94;100.00
77149;BME280;66122;47.130;16.844;2023-09-19T15:16:51;99628.28;;;18.33;100.00
77149;BME280;66122;47.130;16.844;2023-09-19T15:26:54;99604.88;;;18.45;100.00
77149;BME280;66122;47.130;16.844;2023-09-19T15:36:58;99618.47;;;18.53;100.00
77149;BME280;66122;47.130;16.844;2023-09-19T15:47:01;99633.53;;;18.44;100.00
77149;BME280;66122;47.130;16.844;2023-09-19T15:57:03;99643.47;;;18.23;100.00
77149;BME280;66122;47.130;16.844;2023-09-19T16:07:06;99665.13;;;18.01;100.00
77149;BME280;66122;47.130;16.844;2023-09-19T16:17:09;99671.00;;;17.94;100.00
77149;BME280;66122;47.130;16.844;2023-09-19T16:27:13;99666.25;;;17.77;100.00
77149;BME280;66122;47.130;16.844;2023-09-19T16:37:17;99669.59;;;17.58;100.00
77149;BME280;66122;47.130;16.844;2023-09-19T16:47:21;99676.78;;;17.26;100.00
77149;BME280;66122;47.130;16.844;2023-09-19T16:57:23;99686.84;;;17.02;100.00
77149;BME280;66122;47.130;16.844;2023-09-19T17:07:26;99699.53;;;16.89;100.00
77149;BME280;66122;47.130;16.844;2023-09-19T17:17:28;99705.50;;;16.92;100.00
77149;BME280;66122;47.130;16.844;2023-09-19T17:27:31;99700.25;;;16.91;100.00
77149;BME280;66122;47.130;16.844;2023-09-19T17:37:35;99712.06;;;16.88;100.00
77149;BME280;66122;47.130;16.844;2023-09-19T17:47:41;99727.41;;;16.75;100.00
77149;BME280;66122;47.130;16.844;2023-09-19T17:57:44;99731.25;;;16.60;100.00
77149;BME280;66122;47.130;16.844;2023-09-19T18:07:53;99742.41;;;16.20;100.00
77149;BME280;66122;47.130;16.844;2023-09-19T18:17:56;99757.25;;;16.24;100.00
77149;BME280;66122;47.130;16.844;2023-09-19T18:27:59;99769.97;;;15.75;100.00
77149;BME280;66122;47.130;16.844;2023-09-19T18:38:02;99789.91;;;15.82;100.00
77149;BME280;66122;47.130;16.844;2023-09-19T18:48:05;99790.66;;;15.84;100.00
77149;BME280;66122;47.130;16.844;2023-09-19T18:58:08;99795.28;;;15.82;100.00
77149;BME280;66122;47.130;16.844;2023-09-19T19:08:11;99783.56;;;15.72;100.00
77149;BME280;66122;47.130;16.844;2023-09-19T19:18:15;99784.31;;;15.85;100.00
77149;BME280;66122;47.130;16.844;2023-09-19T19:28:18;99789.66;;;15.85;100.00
77149;BME280;66122;47.130;16.844;2023-09-19T19:38:21;99782.41;;;15.87;100.00
77149;BME280;66122;47.130;16.844;2023-09-19T19:48:26;99795.94;;;15.73;100.00
77149;BME280;66122;47.130;16.844;2023-09-19T19:58:31;99796.47;;;15.54;100.00
77149;BME280;66122;47.130;16.844;2023-09-19T20:08:34;99813.78;;;15.36;100.00
77149;BME280;66122;47.130;16.844;2023-09-19T20:18:38;99808.69;;;15.33;100.00
77149;BME280;66122;47.130;16.844;2023-09-19T20:28:42;99810.72;;;15.29;100.00
77149;BME280;66122;47.130;16.844;2023-09-19T20:38:45;99826.25;;;14.99;100.00
77149;BME280;66122;47.130;16.844;2023-09-19T20:48:48;99822.44;;;15.03;100.00
77149;BME280;66122;47.130;16.844;2023-09-19T20:58:51;99829.84;;;15.23;100.00
77149;BME280;66122;47.130;16.844;2023-09-19T21:08:54;99821.50;;;15.28;100.00
77149;BME280;66122;47.130;16.844;2023-09-19T21:18:56;99824.06;;;15.29;100.00
77149;BME280;66122;47.130;16.844;2023-09-19T21:29:01;99814.69;;;15.23;100.00
77149;BME280;66122;47.130;16.844;2023-09-19T21:39:04;99801.31;;;14.74;100.00
77149;BME280;66122;47.130;16.844;2023-09-19T21:49:07;99817.44;;;14.60;100.00
77149;BME280;66122;47.130;16.844;2023-09-19T21:59:09;99808.56;;;14.72;100.00
77149;BME280;66122;47.130;16.844;2023-09-19T22:09:13;99809.00;;;14.66;100.00
77149;BME280;66122;47.130;16.844;2023-09-19T22:19:16;99804.28;;;14.32;100.00
77149;BME280;66122;47.130;16.844;2023-09-19T22:29:18;99795.50;;;14.17;100.00
77149;BME280;66122;47.130;16.844;2023-09-19T22:39:21;99815.50;;;14.50;100.00
77149;BME280;66122;47.130;16.844;2023-09-19T22:49:31;99801.75;;;14.81;100.00
77149;BME280;66122;47.130;16.844;2023-09-19T22:59:34;99807.09;;;14.68;100.00
77149;BME280;66122;47.130;16.844;2023-09-19T23:09:37;99812.88;;;14.62;100.00
77149;BME280;66122;47.130;16.844;2023-09-19T23:19:42;99821.94;;;14.47;100.00
77149;BME280;66122;47.130;16.844;2023-09-19T23:29:44;99837.38;;;14.42;100.00
77149;BME280;66122;47.130;16.844;2023-09-19T23:39:48;99841.66;;;14.44;100.00
77149;BME280;66122;47.130;16.844;2023-09-19T23:49:53;99860.53;;;14.15;100.00
77149;BME280;66122;47.130;16.844;2023-09-19T23:59:56;99853.94;;;14.20;100.00
